sensor_id;sensor_type;location;lat;lon;timestamp;P1;durP1;ratioP1;P2;durP2;ratioP2
53056;SDS011;38940;50.096;4.012;2023-04-01T00:01:39;10.13;;;1.65;;
53056;SDS011;38940;50.096;4.012;2023-04-01T00:04:05;8.40;;;1.90;;
53056;SDS011;38940;50.096;4.012;2023-04-01T00:06:31;9.75;;;2.08;;
53056;SDS011;38940;50.096;4.012;2023-04-01T00:08:57;12.07;;;1.90;;
53056;SDS011;38940;50.096;4.012;2023-04-01T00:11:23;11.33;;;2.07;;
53056;SDS011;38940;50.096;4.012;2023-04-01T00:13:51;8.55;;;1.70;;
53056;SDS011;38940;50.096;4.012;2023-04-01T00:16:17;8.27;;;1.45;;
53056;SDS011;38940;50.096;4.012;2023-04-01T00:18:43;8.40;;;1.55;;
53056;SDS011;38940;50.096;4.012;2023-04-01T00:21:09;6.70;;;1.20;;
53056;SDS011;38940;50.096;4.012;2023-04-01T00:23:35;7.53;;;1.20;;
53056;SDS011;38940;50.096;4.012;2023-04-01T00:26:02;4.28;;;1.00;;
53056;SDS011;38940;50.096;4.012;2023-04-01T00:28:28;7.65;;;1.45;;
53056;SDS011;38940;50.096;4.012;2023-04-01T00:30:54;7.90;;;1.73;;
53056;SDS011;38940;50.096;4.012;2023-04-01T00:33:20;6.50;;;1.00;;
53056;SDS011;38940;50.096;4.012;2023-04-01T00:35:46;6.07;;;1.20;;
53056;SDS011;38940;50.096;4.012;2023-04-01T00:38:12;7.57;;;1.30;;
53056;SDS011;38940;50.096;4.012;2023-04-01T00:40:40;6.27;;;1.10;;
53056;SDS011;38940;50.096;4.012;2023-04-01T00:43:14;6.70;;;1.20;;
53056;SDS011;38940;50.096;4.012;2023-04-01T00:45:43;5.25;;;1.15;;
53056;SDS011;38940;50.096;4.012;2023-04-01T00:48:19;6.13;;;1.20;;
53056;SDS011;38940;50.096;4.012;2023-04-01T00:50:48;7.55;;;1.10;;
53056;SDS011;38940;50.096;4.012;2023-04-01T00:53:16;5.30;;;1.40;;
53056;SDS011;38940;50.096;4.012;2023-04-01T00:55:45;6.10;;;1.27;;
53056;SDS011;38940;50.096;4.012;2023-04-01T00:58:14;4.82;;;0.95;;
53056;SDS011;38940;50.096;4.012;2023-04-01T01:00:41;4.38;;;1.20;;
53056;SDS011;38940;50.096;4.012;2023-04-01T01:03:08;4.82;;;1.00;;
53056;SDS011;38940;50.096;4.012;2023-04-01T01:05:38;5.22;;;1.00;;
53056;SDS011;38940;50.096;4.012;2023-04-01T01:10:55;5.43;;;0.90;;
53056;SDS011;38940;50.096;4.012;2023-04-01T01:13:34;5.85;;;1.40;;
53056;SDS011;38940;50.096;4.012;2023-04-01T01:16:44;6.47;;;1.05;;
53056;SDS011;38940;50.096;4.012;2023-04-01T01:21:30;7.15;;;1.05;;
53056;SDS011;38940;50.096;4.012;2023-04-01T01:36:46;3.05;;;0.80;;
53056;SDS011;38940;50.096;4.012;2023-04-01T01:39:14;3.67;;;1.00;;
53056;SDS011;38940;50.096;4.012;2023-04-01T01:41:41;6.18;;;1.10;;
53056;SDS011;38940;50.096;4.012;2023-04-01T01:44:08;5.85;;;1.05;;
53056;SDS011;38940;50.096;4.012;2023-04-01T01:46:35;3.00;;;0.70;;
53056;SDS011;38940;50.096;4.012;2023-04-01T01:49:02;4.33;;;0.90;;
53056;SDS011;38940;50.096;4.012;2023-04-01T01:51:28;3.95;;;0.90;;
53056;SDS011;38940;50.096;4.012;2023-04-01T01:53:55;5.05;;;1.13;;
53056;SDS011;38940;50.096;4.012;2023-04-01T01:56:22;4.65;;;0.82;;
53056;SDS011;38940;50.096;4.012;2023-04-01T01:58:50;4.22;;;1.13;;
53056;SDS011;38940;50.096;4.012;2023-04-01T02:01:18;3.28;;;0.75;;
53056;SDS011;38940;50.096;4.012;2023-04-01T02:03:45;3.40;;;0.70;;
53056;SDS011;38940;50.096;4.012;2023-04-01T02:06:13;2.08;;;0.60;;
53056;SDS011;38940;50.096;4.012;2023-04-01T02:08:42;1.65;;;0.55;;
53056;SDS011;38940;50.096;4.012;2023-04-01T02:11:11;1.92;;;0.68;;
53056;SDS011;38940;50.096;4.012;2023-04-01T02:16:05;2.53;;;0.60;;
53056;SDS011;38940;50.096;4.012;2023-04-01T02:18:33;2.75;;;1.05;;
53056;SDS011;38940;50.096;4.012;2023-04-01T02:20:59;1.88;;;0.45;;
53056;SDS011;38940;50.096;4.012;2023-04-01T02:23:26;2.28;;;0.65;;
53056;SDS011;38940;50.096;4.012;2023-04-01T02:25:53;1.30;;;0.57;;
53056;SDS011;38940;50.096;4.012;2023-04-01T02:28:20;2.83;;;0.60;;
53056;SDS011;38940;50.096;4.012;2023-04-01T02:30:46;2.43;;;0.50;;
53056;SDS011;38940;50.096;4.012;2023-04-01T02:33:13;2.65;;;0.70;;
53056;SDS011;38940;50.096;4.012;2023-04-01T02:35:39;2.00;;;0.50;;
53056;SDS011;38940;50.096;4.012;2023-04-01T02:38:05;2.08;;;0.55;;
53056;SDS011;38940;50.096;4.012;2023-04-01T02:40:42;2.17;;;0.60;;
53056;SDS011;38940;50.096;4.012;2023-04-01T02:43:08;1.85;;;0.52;;
53056;SDS011;38940;50.096;4.012;2023-04-01T02:45:34;1.52;;;0.50;;
53056;SDS011;38940;50.096;4.012;2023-04-01T02:48:00;1.25;;;0.30;;
53056;SDS011;38940;50.096;4.012;2023-04-01T02:50:26;1.50;;;0.47;;
53056;SDS011;38940;50.096;4.012;2023-04-01T02:52:52;1.30;;;0.30;;
53056;SDS011;38940;50.096;4.012;2023-04-01T02:55:18;1.10;;;0.43;;
53056;SDS011;38940;50.096;4.012;2023-04-01T02:57:44;1.63;;;0.40;;
53056;SDS011;38940;50.096;4.012;2023-04-01T03:00:10;1.65;;;0.50;;
53056;SDS011;38940;50.096;4.012;2023-04-01T03:02:37;1.00;;;0.43;;
53056;SDS011;38940;50.096;4.012;2023-04-01T03:05:03;1.48;;;0.40;;
53056;SDS011;38940;50.096;4.012;2023-04-01T03:07:29;2.40;;;0.40;;
53056;SDS011;38940;50.096;4.012;2023-04-01T03:09:55;1.02;;;0.20;;
53056;SDS011;38940;50.096;4.012;2023-04-01T03:12:21;1.65;;;0.30;;
53056;SDS011;38940;50.096;4.012;2023-04-01T03:14:47;1.55;;;0.30;;
53056;SDS011;38940;50.096;4.012;2023-04-01T03:17:13;1.25;;;0.30;;
53056;SDS011;38940;50.096;4.012;2023-04-01T03:19:39;3.40;;;1.00;;
53056;SDS011;38940;50.096;4.012;2023-04-01T03:22:05;1.08;;;0.60;;
53056;SDS011;38940;50.096;4.012;2023-04-01T03:24:31;1.30;;;0.60;;
53056;SDS011;38940;50.096;4.012;2023-04-01T03:26:57;2.67;;;0.68;;
53056;SDS011;38940;50.096;4.012;2023-04-01T03:29:23;1.40;;;0.65;;
53056;SDS011;38940;50.096;4.012;2023-04-01T03:31:49;1.20;;;0.40;;
53056;SDS011;38940;50.096;4.012;2023-04-01T03:34:15;1.27;;;0.55;;
53056;SDS011;38940;50.096;4.012;2023-04-01T03:36:41;1.00;;;0.47;;
53056;SDS011;38940;50.096;4.012;2023-04-01T03:39:07;3.90;;;0.60;;
53056;SDS011;38940;50.096;4.012;2023-04-01T03:41:34;2.17;;;0.55;;
53056;SDS011;38940;50.096;4.012;2023-04-01T03:44:01;1.90;;;0.73;;
53056;SDS011;38940;50.096;4.012;2023-04-01T03:46:27;1.88;;;0.85;;
53056;SDS011;38940;50.096;4.012;2023-04-01T03:48:53;1.88;;;0.55;;
53056;SDS011;38940;50.096;4.012;2023-04-01T03:51:19;4.20;;;0.80;;
53056;SDS011;38940;50.096;4.012;2023-04-01T03:53:45;3.05;;;0.60;;
53056;SDS011;38940;50.096;4.012;2023-04-01T03:56:11;1.95;;;0.50;;
53056;SDS011;38940;50.096;4.012;2023-04-01T03:58:37;3.55;;;0.75;;
53056;SDS011;38940;50.096;4.012;2023-04-01T04:01:12;5.82;;;0.60;;
53056;SDS011;38940;50.096;4.012;2023-04-01T04:03:38;2.10;;;0.60;;
53056;SDS011;38940;50.096;4.012;2023-04-01T04:06:04;1.17;;;0.60;;
53056;SDS011;38940;50.096;4.012;2023-04-01T04:08:30;1.10;;;0.50;;
53056;SDS011;38940;50.096;4.012;2023-04-01T04:10:56;2.40;;;0.63;;
53056;SDS011;38940;50.096;4.012;2023-04-01T04:13:22;1.20;;;0.60;;
53056;SDS011;38940;50.096;4.012;2023-04-01T04:15:48;1.52;;;0.60;;
53056;SDS011;38940;50.096;4.012;2023-04-01T04:18:14;1.33;;;0.68;;
53056;SDS011;38940;50.096;4.012;2023-04-01T04:20:44;2.05;;;0.55;;
53056;SDS011;38940;50.096;4.012;2023-04-01T04:23:13;1.58;;;0.77;;
53056;SDS011;38940;50.096;4.012;2023-04-01T04:25:39;2.17;;;0.98;;
53056;SDS011;38940;50.096;4.012;2023-04-01T04:28:05;3.10;;;0.90;;
53056;SDS011;38940;50.096;4.012;2023-04-01T04:30:31;2.40;;;1.10;;
53056;SDS011;38940;50.096;4.012;2023-04-01T04:32:57;3.20;;;1.00;;
53056;SDS011;38940;50.096;4.012;2023-04-01T04:35:23;4.22;;;1.40;;
53056;SDS011;38940;50.096;4.012;2023-04-01T04:37:49;6.13;;;1.42;;
53056;SDS011;38940;50.096;4.012;2023-04-01T04:40:15;2.90;;;1.15;;
53056;SDS011;38940;50.096;4.012;2023-04-01T04:42:41;4.80;;;1.30;;
53056;SDS011;38940;50.096;4.012;2023-04-01T04:45:07;3.87;;;1.20;;
53056;SDS011;38940;50.096;4.012;2023-04-01T04:47:33;2.87;;;1.20;;
53056;SDS011;38940;50.096;4.012;2023-04-01T04:49:59;4.27;;;1.13;;
53056;SDS011;38940;50.096;4.012;2023-04-01T04:52:25;2.25;;;1.10;;
53056;SDS011;38940;50.096;4.012;2023-04-01T04:54:51;2.30;;;1.05;;
53056;SDS011;38940;50.096;4.012;2023-04-01T04:57:17;3.58;;;1.20;;
53056;SDS011;38940;50.096;4.012;2023-04-01T04:59:43;3.60;;;1.10;;
53056;SDS011;38940;50.096;4.012;2023-04-01T05:02:09;4.80;;;1.30;;
53056;SDS011;38940;50.096;4.012;2023-04-01T05:04:35;2.10;;;0.93;;
53056;SDS011;38940;50.096;4.012;2023-04-01T05:07:01;3.25;;;1.13;;
53056;SDS011;38940;50.096;4.012;2023-04-01T05:09:28;2.38;;;1.08;;
53056;SDS011;38940;50.096;4.012;2023-04-01T05:11:53;5.65;;;1.33;;
53056;SDS011;38940;50.096;4.012;2023-04-01T05:14:20;4.63;;;1.40;;
53056;SDS011;38940;50.096;4.012;2023-04-01T05:16:46;5.72;;;1.48;;
53056;SDS011;38940;50.096;4.012;2023-04-01T05:19:12;5.13;;;1.37;;
53056;SDS011;38940;50.096;4.012;2023-04-01T05:21:38;8.07;;;1.75;;
53056;SDS011;38940;50.096;4.012;2023-04-01T05:24:06;5.35;;;1.60;;
53056;SDS011;38940;50.096;4.012;2023-04-01T05:26:33;5.32;;;2.08;;
53056;SDS011;38940;50.096;4.012;2023-04-01T05:28:59;5.93;;;1.42;;
53056;SDS011;38940;50.096;4.012;2023-04-01T05:31:24;6.57;;;1.80;;
53056;SDS011;38940;50.096;4.012;2023-04-01T05:33:51;4.90;;;1.77;;
53056;SDS011;38940;50.096;4.012;2023-04-01T05:36:18;4.00;;;1.77;;
53056;SDS011;38940;50.096;4.012;2023-04-01T05:38:44;3.50;;;0.95;;
53056;SDS011;38940;50.096;4.012;2023-04-01T05:41:11;2.13;;;0.90;;
53056;SDS011;38940;50.096;4.012;2023-04-01T05:43:37;1.08;;;0.60;;
53056;SDS011;38940;50.096;4.012;2023-04-01T05:46:03;1.50;;;0.60;;
53056;SDS011;38940;50.096;4.012;2023-04-01T05:48:30;1.10;;;0.50;;
53056;SDS011;38940;50.096;4.012;2023-04-01T05:50:56;3.38;;;0.80;;
53056;SDS011;38940;50.096;4.012;2023-04-01T05:53:21;1.57;;;0.60;;
53056;SDS011;38940;50.096;4.012;2023-04-01T05:55:48;2.00;;;0.60;;
53056;SDS011;38940;50.096;4.012;2023-04-01T05:58:14;2.97;;;0.85;;
53056;SDS011;38940;50.096;4.012;2023-04-01T06:00:40;3.08;;;1.27;;
53056;SDS011;38940;50.096;4.012;2023-04-01T06:03:06;3.60;;;1.00;;
53056;SDS011;38940;50.096;4.012;2023-04-01T06:05:39;3.88;;;1.15;;
53056;SDS011;38940;50.096;4.012;2023-04-01T06:08:08;4.10;;;1.05;;
53056;SDS011;38940;50.096;4.012;2023-04-01T06:13:29;2.95;;;0.95;;
53056;SDS011;38940;50.096;4.012;2023-04-01T06:16:04;4.38;;;0.93;;
53056;SDS011;38940;50.096;4.012;2023-04-01T06:18:45;1.40;;;0.75;;
53056;SDS011;38940;50.096;4.012;2023-04-01T06:23:51;4.38;;;1.55;;
53056;SDS011;38940;50.096;4.012;2023-04-01T06:29:16;4.03;;;1.00;;
53056;SDS011;38940;50.096;4.012;2023-04-01T06:32:04;1.73;;;0.82;;
53056;SDS011;38940;50.096;4.012;2023-04-01T06:34:54;1.33;;;0.60;;
53056;SDS011;38940;50.096;4.012;2023-04-01T06:47:43;3.40;;;0.90;;
53056;SDS011;38940;50.096;4.012;2023-04-01T06:50:15;2.83;;;0.75;;
53056;SDS011;38940;50.096;4.012;2023-04-01T06:55:43;1.83;;;0.80;;
53056;SDS011;38940;50.096;4.012;2023-04-01T06:58:19;1.77;;;0.80;;
53056;SDS011;38940;50.096;4.012;2023-04-01T07:00:46;1.77;;;0.93;;
53056;SDS011;38940;50.096;4.012;2023-04-01T07:03:26;2.38;;;0.90;;
53056;SDS011;38940;50.096;4.012;2023-04-01T07:05:56;2.10;;;1.02;;
53056;SDS011;38940;50.096;4.012;2023-04-01T07:08:25;1.95;;;0.90;;
53056;SDS011;38940;50.096;4.012;2023-04-01T07:10:55;1.40;;;0.70;;
53056;SDS011;38940;50.096;4.012;2023-04-01T07:16:25;1.67;;;0.65;;
53056;SDS011;38940;50.096;4.012;2023-04-01T07:18:54;1.40;;;0.80;;
53056;SDS011;38940;50.096;4.012;2023-04-01T07:23:48;2.50;;;0.80;;
53056;SDS011;38940;50.096;4.012;2023-04-01T07:26:21;1.38;;;0.70;;
53056;SDS011;38940;50.096;4.012;2023-04-01T07:28:48;3.23;;;0.90;;
53056;SDS011;38940;50.096;4.012;2023-04-01T07:33:45;0.88;;;0.50;;
53056;SDS011;38940;50.096;4.012;2023-04-01T07:39:00;2.17;;;0.65;;
53056;SDS011;38940;50.096;4.012;2023-04-01T07:49:53;3.58;;;0.80;;
53056;SDS011;38940;50.096;4.012;2023-04-01T07:54:37;3.57;;;1.00;;
53056;SDS011;38940;50.096;4.012;2023-04-01T07:57:15;3.70;;;1.40;;
53056;SDS011;38940;50.096;4.012;2023-04-01T08:13:06;4.43;;;1.30;;
53056;SDS011;38940;50.096;4.012;2023-04-01T08:15:42;2.70;;;1.10;;
53056;SDS011;38940;50.096;4.012;2023-04-01T08:20:58;4.28;;;1.10;;
53056;SDS011;38940;50.096;4.012;2023-04-01T08:23:32;2.55;;;1.17;;
53056;SDS011;38940;50.096;4.012;2023-04-01T08:28:39;2.20;;;1.00;;
53056;SDS011;38940;50.096;4.012;2023-04-01T08:31:11;2.05;;;0.90;;
53056;SDS011;38940;50.096;4.012;2023-04-01T08:33:39;2.35;;;0.80;;
53056;SDS011;38940;50.096;4.012;2023-04-01T08:36:10;4.35;;;0.98;;
53056;SDS011;38940;50.096;4.012;2023-04-01T08:38:39;2.47;;;0.93;;
53056;SDS011;38940;50.096;4.012;2023-04-01T08:41:12;2.65;;;0.82;;
53056;SDS011;38940;50.096;4.012;2023-04-01T08:43:51;2.70;;;1.10;;
53056;SDS011;38940;50.096;4.012;2023-04-01T08:48:59;2.60;;;0.52;;
53056;SDS011;38940;50.096;4.012;2023-04-01T08:58:59;1.80;;;0.55;;
53056;SDS011;38940;50.096;4.012;2023-04-01T09:01:41;0.73;;;0.50;;
53056;SDS011;38940;50.096;4.012;2023-04-01T09:04:24;1.50;;;0.70;;
53056;SDS011;38940;50.096;4.012;2023-04-01T09:07:00;1.40;;;0.80;;
53056;SDS011;38940;50.096;4.012;2023-04-01T09:09:53;2.67;;;0.70;;
53056;SDS011;38940;50.096;4.012;2023-04-01T09:35:48;2.22;;;1.48;;
53056;SDS011;38940;50.096;4.012;2023-04-01T09:43:23;1.63;;;1.13;;
53056;SDS011;38940;50.096;4.012;2023-04-01T09:46:04;1.40;;;1.17;;
53056;SDS011;38940;50.096;4.012;2023-04-01T10:12:31;1.30;;;1.03;;
53056;SDS011;38940;50.096;4.012;2023-04-01T10:43:57;1.35;;;1.00;;
53056;SDS011;38940;50.096;4.012;2023-04-01T10:51:56;1.83;;;1.30;;
53056;SDS011;38940;50.096;4.012;2023-04-01T10:54:33;1.80;;;1.20;;
53056;SDS011;38940;50.096;4.012;2023-04-01T11:23:09;2.40;;;1.90;;
53056;SDS011;38940;50.096;4.012;2023-04-01T11:25:55;4.45;;;1.90;;
53056;SDS011;38940;50.096;4.012;2023-04-01T11:33:50;2.80;;;1.90;;
53056;SDS011;38940;50.096;4.012;2023-04-01T11:41:32;3.07;;;1.80;;
53056;SDS011;38940;50.096;4.012;2023-04-01T11:46:54;3.40;;;1.70;;
53056;SDS011;38940;50.096;4.012;2023-04-01T11:49:29;2.03;;;1.38;;
53056;SDS011;38940;50.096;4.012;2023-04-01T12:00:02;3.40;;;2.03;;
53056;SDS011;38940;50.096;4.012;2023-04-01T12:05:22;5.13;;;2.42;;
53056;SDS011;38940;50.096;4.012;2023-04-01T12:13:16;2.83;;;2.40;;
53056;SDS011;38940;50.096;4.012;2023-04-01T12:18:48;2.47;;;1.80;;
53056;SDS011;38940;50.096;4.012;2023-04-01T12:44:37;4.07;;;2.55;;
53056;SDS011;38940;50.096;4.012;2023-04-01T12:47:05;4.47;;;2.73;;
53056;SDS011;38940;50.096;4.012;2023-04-01T12:54:38;4.50;;;2.30;;
53056;SDS011;38940;50.096;4.012;2023-04-01T13:07:44;4.00;;;2.20;;
53056;SDS011;38940;50.096;4.012;2023-04-01T13:10:27;4.90;;;2.40;;
53056;SDS011;38940;50.096;4.012;2023-04-01T13:15:32;3.80;;;2.50;;
53056;SDS011;38940;50.096;4.012;2023-04-01T13:28:09;3.10;;;2.10;;
53056;SDS011;38940;50.096;4.012;2023-04-01T13:30:53;2.85;;;2.13;;
53056;SDS011;38940;50.096;4.012;2023-04-01T13:33:25;2.90;;;1.98;;
53056;SDS011;38940;50.096;4.012;2023-04-01T13:41:11;3.88;;;2.50;;
53056;SDS011;38940;50.096;4.012;2023-04-01T13:43:42;3.15;;;1.90;;
53056;SDS011;38940;50.096;4.012;2023-04-01T13:53:50;3.40;;;2.13;;
53056;SDS011;38940;50.096;4.012;2023-04-01T14:22:31;3.17;;;1.60;;
53056;SDS011;38940;50.096;4.012;2023-04-01T14:27:47;3.85;;;1.45;;
53056;SDS011;38940;50.096;4.012;2023-04-01T14:40:45;9.90;;;4.68;;
53056;SDS011;38940;50.096;4.012;2023-04-01T14:43:20;3.42;;;2.00;;
53056;SDS011;38940;50.096;4.012;2023-04-01T14:50:54;2.85;;;1.40;;
53056;SDS011;38940;50.096;4.012;2023-04-01T14:53:33;2.85;;;1.30;;
53056;SDS011;38940;50.096;4.012;2023-04-01T14:56:01;1.70;;;1.20;;
53056;SDS011;38940;50.096;4.012;2023-04-01T14:58:50;1.15;;;0.70;;
53056;SDS011;38940;50.096;4.012;2023-04-01T15:06:45;2.08;;;0.70;;
53056;SDS011;38940;50.096;4.012;2023-04-01T15:17:05;1.70;;;1.17;;
53056;SDS011;38940;50.096;4.012;2023-04-01T15:35:18;3.33;;;2.00;;
53056;SDS011;38940;50.096;4.012;2023-04-01T15:41:16;3.35;;;1.65;;
53056;SDS011;38940;50.096;4.012;2023-04-01T15:51:08;2.95;;;1.92;;
53056;SDS011;38940;50.096;4.012;2023-04-01T15:59:24;2.92;;;1.60;;
53056;SDS011;38940;50.096;4.012;2023-04-01T16:02:00;3.60;;;2.20;;
53056;SDS011;38940;50.096;4.012;2023-04-01T16:09:56;2.95;;;1.65;;
53056;SDS011;38940;50.096;4.012;2023-04-01T16:20:14;3.97;;;1.43;;
53056;SDS011;38940;50.096;4.012;2023-04-01T16:22:53;2.25;;;1.35;;
53056;SDS011;38940;50.096;4.012;2023-04-01T16:25:26;3.33;;;1.50;;
53056;SDS011;38940;50.096;4.012;2023-04-01T16:28:03;2.45;;;1.20;;
53056;SDS011;38940;50.096;4.012;2023-04-01T16:30:35;3.53;;;1.50;;
53056;SDS011;38940;50.096;4.012;2023-04-01T16:35:49;3.10;;;1.60;;
53056;SDS011;38940;50.096;4.012;2023-04-01T16:41:16;2.42;;;1.20;;
53056;SDS011;38940;50.096;4.012;2023-04-01T16:43:48;4.28;;;1.67;;
53056;SDS011;38940;50.096;4.012;2023-04-01T16:46:32;3.38;;;1.80;;
53056;SDS011;38940;50.096;4.012;2023-04-01T16:51:48;2.10;;;1.60;;
53056;SDS011;38940;50.096;4.012;2023-04-01T16:54:14;3.27;;;1.30;;
53056;SDS011;38940;50.096;4.012;2023-04-01T16:57:31;3.72;;;1.20;;
53056;SDS011;38940;50.096;4.012;2023-04-01T16:59:34;2.42;;;1.40;;
53056;SDS011;38940;50.096;4.012;2023-04-01T17:12:38;3.03;;;1.10;;
53056;SDS011;38940;50.096;4.012;2023-04-01T17:20:30;2.45;;;0.80;;
53056;SDS011;38940;50.096;4.012;2023-04-01T17:25:44;1.33;;;0.88;;
53056;SDS011;38940;50.096;4.012;2023-04-01T17:28:28;2.28;;;0.90;;
53056;SDS011;38940;50.096;4.012;2023-04-01T17:33:28;0.80;;;0.60;;
53056;SDS011;38940;50.096;4.012;2023-04-01T17:46:50;1.53;;;0.70;;
53056;SDS011;38940;50.096;4.012;2023-04-01T17:49:29;1.53;;;0.83;;
53056;SDS011;38940;50.096;4.012;2023-04-01T18:20:54;1.10;;;0.40;;
53056;SDS011;38940;50.096;4.012;2023-04-01T18:25:53;1.55;;;0.82;;
53056;SDS011;38940;50.096;4.012;2023-04-01T18:28:22;2.60;;;0.80;;
53056;SDS011;38940;50.096;4.012;2023-04-01T18:30:51;1.42;;;1.00;;
53056;SDS011;38940;50.096;4.012;2023-04-01T18:33:19;2.85;;;0.90;;
53056;SDS011;38940;50.096;4.012;2023-04-01T18:35:48;1.95;;;1.20;;
53056;SDS011;38940;50.096;4.012;2023-04-01T18:38:16;3.42;;;1.55;;
53056;SDS011;38940;50.096;4.012;2023-04-01T18:40:58;5.25;;;3.15;;
53056;SDS011;38940;50.096;4.012;2023-04-01T18:43:38;4.27;;;1.57;;
53056;SDS011;38940;50.096;4.012;2023-04-01T18:46:19;14.95;;;8.48;;
53056;SDS011;38940;50.096;4.012;2023-04-01T18:51:49;4.30;;;2.60;;
53056;SDS011;38940;50.096;4.012;2023-04-01T18:54:24;3.15;;;1.63;;
53056;SDS011;38940;50.096;4.012;2023-04-01T18:56:51;3.75;;;1.55;;
53056;SDS011;38940;50.096;4.012;2023-04-01T19:00:08;2.80;;;1.45;;
53056;SDS011;38940;50.096;4.012;2023-04-01T19:05:07;1.35;;;0.70;;
53056;SDS011;38940;50.096;4.012;2023-04-01T19:07:46;2.40;;;1.17;;
53056;SDS011;38940;50.096;4.012;2023-04-01T19:18:30;2.25;;;1.15;;
53056;SDS011;38940;50.096;4.012;2023-04-01T19:26:00;0.90;;;0.50;;
53056;SDS011;38940;50.096;4.012;2023-04-01T19:28:40;1.00;;;0.70;;
53056;SDS011;38940;50.096;4.012;2023-04-01T19:39:17;1.95;;;0.63;;
53056;SDS011;38940;50.096;4.012;2023-04-01T19:46:46;1.90;;;0.70;;
53056;SDS011;38940;50.096;4.012;2023-04-01T19:59:54;1.75;;;0.85;;
53056;SDS011;38940;50.096;4.012;2023-04-01T20:02:32;0.93;;;0.60;;
53056;SDS011;38940;50.096;4.012;2023-04-01T20:05:00;2.42;;;0.80;;
53056;SDS011;38940;50.096;4.012;2023-04-01T20:07:34;1.25;;;0.70;;
53056;SDS011;38940;50.096;4.012;2023-04-01T20:12:57;1.40;;;0.60;;
53056;SDS011;38940;50.096;4.012;2023-04-01T20:15:37;0.98;;;0.60;;
53056;SDS011;38940;50.096;4.012;2023-04-01T20:20:56;1.50;;;0.60;;
53056;SDS011;38940;50.096;4.012;2023-04-01T20:25:51;5.45;;;1.35;;
53056;SDS011;38940;50.096;4.012;2023-04-01T20:46:35;2.20;;;1.02;;
53056;SDS011;38940;50.096;4.012;2023-04-01T20:52:30;1.40;;;1.10;;
53056;SDS011;38940;50.096;4.012;2023-04-01T20:57:13;2.13;;;1.00;;
53056;SDS011;38940;50.096;4.012;2023-04-01T21:02:28;2.30;;;1.08;;
53056;SDS011;38940;50.096;4.012;2023-04-01T21:07:47;1.70;;;1.10;;
53056;SDS011;38940;50.096;4.012;2023-04-01T21:10:36;1.95;;;1.13;;
53056;SDS011;38940;50.096;4.012;2023-04-01T21:23:52;1.27;;;1.00;;
53056;SDS011;38940;50.096;4.012;2023-04-01T21:26:26;1.02;;;0.80;;
53056;SDS011;38940;50.096;4.012;2023-04-01T21:34:01;1.45;;;1.02;;
53056;SDS011;38940;50.096;4.012;2023-04-01T21:39:13;1.13;;;0.80;;
53056;SDS011;38940;50.096;4.012;2023-04-01T22:00:18;1.33;;;1.20;;
53056;SDS011;38940;50.096;4.012;2023-04-01T22:11:02;2.73;;;1.50;;
53056;SDS011;38940;50.096;4.012;2023-04-01T22:18:57;2.33;;;1.70;;
53056;SDS011;38940;50.096;4.012;2023-04-01T22:39:26;5.53;;;2.70;;
53056;SDS011;38940;50.096;4.012;2023-04-01T23:02:23;8.93;;;3.10;;
53056;SDS011;38940;50.096;4.012;2023-04-01T23:04:55;6.32;;;3.20;;
53056;SDS011;38940;50.096;4.012;2023-04-01T23:10:13;7.18;;;3.30;;
53056;SDS011;38940;50.096;4.012;2023-04-01T23:12:40;10.90;;;3.78;;
53056;SDS011;38940;50.096;4.012;2023-04-01T23:15:10;8.90;;;3.92;;
53056;SDS011;38940;50.096;4.012;2023-04-01T23:25:43;6.63;;;3.30;;
53056;SDS011;38940;50.096;4.012;2023-04-01T23:30:55;8.30;;;3.10;;
53056;SDS011;38940;50.096;4.012;2023-04-01T23:33:26;6.57;;;3.08;;
53056;SDS011;38940;50.096;4.012;2023-04-01T23:36:09;11.48;;;3.60;;
53056;SDS011;38940;50.096;4.012;2023-04-01T23:38:37;7.95;;;2.72;;
53056;SDS011;38940;50.096;4.012;2023-04-01T23:41:06;5.57;;;2.80;;
53056;SDS011;38940;50.096;4.012;2023-04-01T23:43:41;6.65;;;3.00;;
53056;SDS011;38940;50.096;4.012;2023-04-01T23:46:08;6.13;;;2.70;;
53056;SDS011;38940;50.096;4.012;2023-04-01T23:48:39;3.53;;;2.20;;
53056;SDS011;38940;50.096;4.012;2023-04-01T23:51:49;4.80;;;2.20;;
53056;SDS011;38940;50.096;4.012;2023-04-01T23:54:03;4.00;;;2.10;;
53056;SDS011;38940;50.096;4.012;2023-04-01T23:56:40;5.73;;;2.30;;
53056;SDS011;38940;50.096;4.012;2023-04-01T23:59:11;3.67;;;2.25;;
